createdAt,value
2022-12-25T00:02:04.720Z,14.83
2022-12-25T00:08:50.460Z,14.71
2022-12-25T00:15:41.950Z,14.76
2022-12-25T00:22:27.448Z,14.80
2022-12-25T00:29:15.729Z,14.75
2022-12-25T00:36:06.764Z,14.71
2022-12-25T00:42:54.649Z,14.75
2022-12-25T00:49:40.685Z,14.74
2022-12-25T00:56:28.906Z,14.68
2022-12-25T01:03:14.362Z,14.82
2022-12-25T01:10:12.340Z,14.87
2022-12-25T01:17:00.294Z,14.84
2022-12-25T01:23:47.482Z,14.27
2022-12-25T01:30:32.906Z,14.89
2022-12-25T01:37:20.912Z,14.79
2022-12-25T01:44:10.712Z,14.78
2022-12-25T01:51:00.122Z,14.77
2022-12-25T01:57:49.973Z,14.72
2022-12-25T02:04:41.243Z,14.75
2022-12-25T02:11:39.177Z,14.86
2022-12-25T02:18:39.334Z,14.70
2022-12-25T02:25:43.840Z,14.65
2022-12-25T02:32:35.581Z,14.66
2022-12-25T02:39:40.306Z,14.57
2022-12-25T02:46:40.055Z,14.62
2022-12-25T02:53:40.674Z,14.61
2022-12-25T03:00:38.830Z,14.76
2022-12-25T03:07:26.817Z,14.85
2022-12-25T03:14:27.288Z,14.96
2022-12-25T03:21:25.515Z,14.59
2022-12-25T03:28:10.999Z,15.18
2022-12-25T03:35:18.653Z,15.14
2022-12-25T03:42:21.103Z,15.45
2022-12-25T04:02:43.360Z,15.71
2022-12-25T04:09:41.433Z,15.82
2022-12-25T04:16:39.446Z,15.69
2022-12-25T04:23:39.903Z,15.75
2022-12-25T04:30:37.808Z,15.83
2022-12-25T04:37:23.246Z,15.98
2022-12-25T04:44:12.972Z,16.01
2022-12-25T04:50:58.406Z,16.21
2022-12-25T04:57:44.042Z,16.34
2022-12-25T05:04:32.099Z,16.41
2022-12-25T05:11:19.519Z,15.89
2022-12-25T05:18:04.910Z,16.46
2022-12-25T05:24:52.920Z,16.38
2022-12-25T05:31:38.490Z,16.47
2022-12-25T05:38:24.007Z,16.50
2022-12-25T05:45:14.068Z,16.41
2022-12-25T05:51:59.441Z,16.45
2022-12-25T05:58:45.324Z,15.95
2022-12-25T06:05:34.011Z,16.44
2022-12-25T06:12:19.412Z,16.49
2022-12-25T06:19:04.770Z,16.52
2022-12-25T06:25:52.770Z,16.56
2022-12-25T06:32:38.218Z,16.74
2022-12-25T06:39:25.604Z,16.71
2022-12-25T06:46:16.006Z,16.73
2022-12-25T06:53:02.996Z,16.92
2022-12-25T06:59:54.616Z,16.87
2022-12-25T07:06:43.243Z,16.81
2022-12-25T07:13:28.790Z,16.96
2022-12-25T07:20:14.600Z,17.00
2022-12-25T07:27:02.598Z,16.87
2022-12-25T07:33:48.086Z,16.82
2022-12-25T07:40:33.553Z,16.79
2022-12-25T07:47:21.476Z,16.81
2022-12-25T07:54:07.122Z,16.77
2022-12-25T08:00:52.568Z,16.82
2022-12-25T08:07:40.662Z,16.74
2022-12-25T08:14:26.008Z,16.73
2022-12-25T08:21:15.039Z,16.67
2022-12-25T08:28:03.956Z,16.73
2022-12-25T08:34:49.650Z,16.70
2022-12-25T08:41:36.500Z,16.56
2022-12-25T08:48:24.828Z,16.51
2022-12-25T08:55:11.375Z,16.60
2022-12-25T09:01:56.923Z,16.65
2022-12-25T09:08:49.149Z,16.57
2022-12-25T09:15:35.274Z,16.56
2022-12-25T09:22:20.635Z,16.63
2022-12-25T09:29:08.708Z,16.58
2022-12-25T09:35:59.283Z,15.96
2022-12-25T09:42:46.032Z,16.56
2022-12-25T09:49:42.017Z,16.64
2022-12-25T09:56:28.876Z,16.71
2022-12-25T10:03:33.127Z,16.70
2022-12-25T10:10:44.760Z,16.75
2022-12-25T10:17:43.474Z,16.79
2022-12-25T10:24:38.679Z,16.89
2022-12-25T10:31:30.017Z,16.89
2022-12-25T10:38:19.693Z,16.93
2022-12-25T10:45:08.050Z,16.53
2022-12-25T10:51:56.183Z,16.97
2022-12-25T10:58:41.581Z,16.98
2022-12-25T11:05:32.037Z,16.90
2022-12-25T11:12:27.160Z,16.59
2022-12-25T11:19:29.507Z,16.87
2022-12-25T11:26:16.239Z,16.78
2022-12-25T11:33:07.317Z,17.27
2022-12-25T11:39:52.666Z,17.03
2022-12-25T11:46:45.924Z,17.00
2022-12-25T11:53:41.603Z,17.01
2022-12-25T12:00:27.430Z,17.10
2022-12-25T12:07:22.069Z,17.05
2022-12-25T12:14:30.551Z,17.06
2022-12-25T12:21:26.778Z,16.95
2022-12-25T12:28:23.294Z,16.95
2022-12-25T12:35:20.307Z,16.50
2022-12-25T12:42:17.094Z,17.15
2022-12-25T12:49:12.664Z,17.52
2022-12-25T12:56:11.669Z,17.32
2022-12-25T13:03:44.003Z,17.39
2022-12-25T13:10:35.832Z,17.17
2022-12-25T13:17:26.960Z,17.03
2022-12-25T13:24:24.904Z,17.30
2022-12-25T13:31:18.562Z,17.33
2022-12-25T13:38:06.768Z,17.34
2022-12-25T13:44:55.993Z,17.40
2022-12-25T13:51:41.364Z,17.48
2022-12-25T13:58:33.345Z,17.54
2022-12-25T14:05:37.881Z,17.50
2022-12-25T14:12:28.536Z,16.93
2022-12-25T14:19:29.962Z,17.38
2022-12-25T14:26:19.784Z,16.87
2022-12-25T14:33:07.665Z,17.28
2022-12-25T14:40:03.471Z,17.22
2022-12-25T14:46:49.198Z,17.19
2022-12-25T14:53:41.151Z,17.12
2022-12-25T15:00:35.919Z,17.02
2022-12-25T15:07:33.967Z,16.95
2022-12-25T15:14:19.398Z,16.99
2022-12-25T15:21:07.973Z,17.01
2022-12-25T15:27:53.418Z,17.15
2022-12-25T15:34:38.846Z,17.14
2022-12-25T15:41:43.134Z,17.02
2022-12-25T15:48:29.274Z,16.96
2022-12-25T15:55:15.641Z,17.04
2022-12-25T16:02:06.699Z,16.57
2022-12-25T16:08:52.327Z,16.88
2022-12-25T16:15:38.100Z,16.93
2022-12-25T16:22:28.906Z,16.90
2022-12-25T16:29:14.841Z,16.98
2022-12-25T16:36:00.338Z,16.86
2022-12-25T16:42:49.331Z,16.92
2022-12-25T16:49:34.889Z,16.68
2022-12-25T16:56:25.444Z,16.60
2022-12-25T17:03:13.609Z,16.59
2022-12-25T17:09:59.748Z,16.56
2022-12-25T17:16:45.254Z,16.56
2022-12-25T17:23:33.186Z,16.40
2022-12-25T17:30:19.399Z,16.42
2022-12-25T17:37:04.903Z,16.31
2022-12-25T17:43:52.917Z,16.24
2022-12-25T17:50:41.415Z,16.14
2022-12-25T17:57:27.470Z,16.12
2022-12-25T18:04:16.331Z,16.04
2022-12-25T18:11:07.210Z,16.02
2022-12-25T18:17:52.548Z,15.86
2022-12-25T18:24:41.316Z,15.98
2022-12-25T18:31:30.587Z,15.95
2022-12-25T18:38:17.109Z,15.94
2022-12-25T18:45:06.116Z,16.04
2022-12-25T18:51:52.400Z,16.02
2022-12-25T18:58:39.222Z,16.03
2022-12-25T19:05:27.299Z,15.39
2022-12-25T19:12:12.695Z,16.09
2022-12-25T19:18:59.167Z,16.05
2022-12-25T19:25:47.692Z,15.95
2022-12-25T19:32:33.099Z,15.93
2022-12-25T19:39:18.788Z,15.83
2022-12-25T19:46:13.475Z,15.90
2022-12-25T19:52:59.423Z,16.09
2022-12-25T19:59:45.076Z,16.09
2022-12-25T20:06:35.461Z,16.05
2022-12-25T20:13:21.609Z,16.15
2022-12-25T20:20:07.748Z,16.06
2022-12-25T20:26:59.151Z,16.01
2022-12-25T20:33:44.985Z,15.99
2022-12-25T20:40:30.460Z,16.03
2022-12-25T20:47:18.438Z,16.00
2022-12-25T20:54:03.856Z,15.97
2022-12-25T21:00:49.333Z,16.01
2022-12-25T21:07:37.359Z,15.66
2022-12-25T21:14:22.756Z,15.96
2022-12-25T21:21:09.938Z,15.45
2022-12-25T21:27:58.028Z,15.94
2022-12-25T21:34:43.556Z,16.05
2022-12-25T21:41:30.570Z,16.06
2022-12-25T21:48:18.676Z,16.19
2022-12-25T21:55:06.222Z,16.35
2022-12-25T22:01:53.772Z,16.33
2022-12-25T22:08:41.930Z,16.29
2022-12-25T22:15:39.736Z,16.20
2022-12-25T22:22:28.672Z,16.31
2022-12-25T22:29:16.878Z,16.29
2022-12-25T22:36:05.379Z,16.23
2022-12-25T22:42:51.113Z,16.19
2022-12-25T22:49:39.425Z,16.13
2022-12-25T22:56:24.899Z,16.13
2022-12-25T23:03:10.334Z,16.04
2022-12-25T23:09:58.927Z,15.92
2022-12-25T23:16:45.087Z,16.00
2022-12-25T23:23:42.953Z,16.03
2022-12-25T23:30:30.975Z,15.98
2022-12-25T23:37:16.772Z,16.11
2022-12-25T23:44:02.378Z,16.13
2022-12-25T23:50:50.488Z,16.17
2022-12-25T23:57:35.857Z,16.12
